sensor_id;sensor_type;location;lat;lon;timestamp;pressure;altitude;pressure_sealevel;temperature
79148;BMP280;68562;51.600;6.524;2023-11-19T00:00:01;1007.7;;;14.4
79148;BMP280;68562;51.600;6.524;2023-11-19T00:05:00;1007.7;;;14.5
79148;BMP280;68562;51.600;6.524;2023-11-19T00:10:00;1007.7;;;14.6
79148;BMP280;68562;51.600;6.524;2023-11-19T00:15:00;1007.8;;;14.6
79148;BMP280;68562;51.600;6.524;2023-11-19T00:20:00;1007.7;;;14.6
79148;BMP280;68562;51.600;6.524;2023-11-19T00:25:00;1007.6;;;14.5
79148;BMP280;68562;51.600;6.524;2023-11-19T00:30:00;1007.5;;;14.6
79148;BMP280;68562;51.600;6.524;2023-11-19T00:35:00;1007.4;;;14.6
79148;BMP280;68562;51.600;6.524;2023-11-19T00:40:00;1007.3;;;14.7
79148;BMP280;68562;51.600;6.524;2023-11-19T00:45:00;1007.3;;;14.7
79148;BMP280;68562;51.600;6.524;2023-11-19T00:50:00;1007.2;;;14.7
79148;BMP280;68562;51.600;6.524;2023-11-19T00:55:00;1007.0;;;14.8
79148;BMP280;68562;51.600;6.524;2023-11-19T01:00:00;1007.1;;;14.8
79148;BMP280;68562;51.600;6.524;2023-11-19T01:05:00;1007.1;;;14.9
79148;BMP280;68562;51.600;6.524;2023-11-19T01:10:00;1007.2;;;14.8
79148;BMP280;68562;51.600;6.524;2023-11-19T01:15:01;1007.2;;;14.8
79148;BMP280;68562;51.600;6.524;2023-11-19T01:20:00;1007.2;;;14.9
79148;BMP280;68562;51.600;6.524;2023-11-19T01:25:00;1007.3;;;14.9
79148;BMP280;68562;51.600;6.524;2023-11-19T01:30:00;1007.3;;;14.9
79148;BMP280;68562;51.600;6.524;2023-11-19T01:35:00;1007.2;;;15.0
79148;BMP280;68562;51.600;6.524;2023-11-19T01:40:00;1007.1;;;15.0
79148;BMP280;68562;51.600;6.524;2023-11-19T01:45:01;1007.1;;;15.1
79148;BMP280;68562;51.600;6.524;2023-11-19T01:50:01;1007.1;;;15.1
79148;BMP280;68562;51.600;6.524;2023-11-19T01:55:00;1006.9;;;15.1
79148;BMP280;68562;51.600;6.524;2023-11-19T02:00:00;1006.8;;;15.1
79148;BMP280;68562;51.600;6.524;2023-11-19T02:05:00;1006.8;;;15.1
79148;BMP280;68562;51.600;6.524;2023-11-19T02:10:00;1006.8;;;15.2
79148;BMP280;68562;51.600;6.524;2023-11-19T02:15:00;1006.8;;;15.1
79148;BMP280;68562;51.600;6.524;2023-11-19T02:20:00;1006.8;;;15.1
79148;BMP280;68562;51.600;6.524;2023-11-19T02:25:03;1006.7;;;15.0
79148;BMP280;68562;51.600;6.524;2023-11-19T02:30:00;1006.7;;;15.1
79148;BMP280;68562;51.600;6.524;2023-11-19T02:35:00;1006.8;;;15.1
79148;BMP280;68562;51.600;6.524;2023-11-19T02:40:00;1006.7;;;15.0
79148;BMP280;68562;51.600;6.524;2023-11-19T02:45:00;1006.6;;;15.1
79148;BMP280;68562;51.600;6.524;2023-11-19T02:50:00;1006.5;;;15.0
79148;BMP280;68562;51.600;6.524;2023-11-19T02:55:00;1006.6;;;15.0
79148;BMP280;68562;51.600;6.524;2023-11-19T03:00:00;1006.5;;;14.9
79148;BMP280;68562;51.600;6.524;2023-11-19T03:05:00;1006.6;;;14.9
79148;BMP280;68562;51.600;6.524;2023-11-19T03:10:00;1006.5;;;14.9
79148;BMP280;68562;51.600;6.524;2023-11-19T03:15:00;1006.5;;;15.0
79148;BMP280;68562;51.600;6.524;2023-11-19T03:20:00;1006.5;;;14.9
79148;BMP280;68562;51.600;6.524;2023-11-19T03:25:00;1006.5;;;15.0
79148;BMP280;68562;51.600;6.524;2023-11-19T03:30:00;1006.5;;;15.0
79148;BMP280;68562;51.600;6.524;2023-11-19T03:35:00;1006.5;;;14.9
79148;BMP280;68562;51.600;6.524;2023-11-19T03:40:00;1006.5;;;14.9
79148;BMP280;68562;51.600;6.524;2023-11-19T03:45:00;1006.6;;;14.9
79148;BMP280;68562;51.600;6.524;2023-11-19T03:50:00;1006.6;;;14.8
79148;BMP280;68562;51.600;6.524;2023-11-19T03:55:00;1006.6;;;14.6
79148;BMP280;68562;51.600;6.524;2023-11-19T04:00:00;1006.5;;;14.5
79148;BMP280;68562;51.600;6.524;2023-11-19T04:05:00;1006.5;;;14.5
79148;BMP280;68562;51.600;6.524;2023-11-19T04:10:00;1006.4;;;14.4
79148;BMP280;68562;51.600;6.524;2023-11-19T04:15:00;1006.6;;;14.4
79148;BMP280;68562;51.600;6.524;2023-11-19T04:20:00;1006.6;;;14.3
79148;BMP280;68562;51.600;6.524;2023-11-19T04:25:00;1006.7;;;14.3
79148;BMP280;68562;51.600;6.524;2023-11-19T04:30:00;1006.7;;;14.2
79148;BMP280;68562;51.600;6.524;2023-11-19T04:35:00;1006.7;;;14.0
79148;BMP280;68562;51.600;6.524;2023-11-19T04:40:00;1006.7;;;14.0
79148;BMP280;68562;51.600;6.524;2023-11-19T04:45:00;1006.7;;;13.9
79148;BMP280;68562;51.600;6.524;2023-11-19T04:50:00;1006.7;;;14.0
79148;BMP280;68562;51.600;6.524;2023-11-19T04:55:00;1006.8;;;13.9
79148;BMP280;68562;51.600;6.524;2023-11-19T05:00:00;1006.7;;;14.0
79148;BMP280;68562;51.600;6.524;2023-11-19T05:05:00;1006.7;;;13.9
79148;BMP280;68562;51.600;6.524;2023-11-19T05:10:00;1006.9;;;13.9
79148;BMP280;68562;51.600;6.524;2023-11-19T05:15:00;1006.9;;;14.0
79148;BMP280;68562;51.600;6.524;2023-11-19T05:20:00;1006.9;;;13.9
79148;BMP280;68562;51.600;6.524;2023-11-19T05:25:00;1007.0;;;14.0
79148;BMP280;68562;51.600;6.524;2023-11-19T05:30:00;1006.9;;;14.0
79148;BMP280;68562;51.600;6.524;2023-11-19T05:35:00;1006.8;;;13.9
79148;BMP280;68562;51.600;6.524;2023-11-19T05:40:00;1006.8;;;13.9
79148;BMP280;68562;51.600;6.524;2023-11-19T05:45:00;1006.8;;;13.9
79148;BMP280;68562;51.600;6.524;2023-11-19T05:50:00;1006.8;;;13.9
79148;BMP280;68562;51.600;6.524;2023-11-19T05:55:00;1006.8;;;13.9
79148;BMP280;68562;51.600;6.524;2023-11-19T06:00:00;1006.8;;;14.0
79148;BMP280;68562;51.600;6.524;2023-11-19T06:05:00;1006.7;;;13.9
79148;BMP280;68562;51.600;6.524;2023-11-19T06:10:00;1006.8;;;13.8
79148;BMP280;68562;51.600;6.524;2023-11-19T06:15:00;1006.8;;;13.7
79148;BMP280;68562;51.600;6.524;2023-11-19T06:20:00;1006.8;;;13.6
79148;BMP280;68562;51.600;6.524;2023-11-19T06:25:00;1006.9;;;13.6
79148;BMP280;68562;51.600;6.524;2023-11-19T06:30:00;1006.9;;;13.5
79148;BMP280;68562;51.600;6.524;2023-11-19T06:35:00;1007.0;;;13.5
79148;BMP280;68562;51.600;6.524;2023-11-19T06:40:00;1006.9;;;13.5
79148;BMP280;68562;51.600;6.524;2023-11-19T06:45:00;1007.0;;;13.5
79148;BMP280;68562;51.600;6.524;2023-11-19T06:50:00;1007.0;;;13.5
79148;BMP280;68562;51.600;6.524;2023-11-19T06:55:00;1007.1;;;13.5
79148;BMP280;68562;51.600;6.524;2023-11-19T07:00:00;1007.1;;;13.5
79148;BMP280;68562;51.600;6.524;2023-11-19T07:05:00;1007.1;;;13.5
79148;BMP280;68562;51.600;6.524;2023-11-19T07:10:00;1007.2;;;13.5
79148;BMP280;68562;51.600;6.524;2023-11-19T07:15:00;1007.3;;;13.4
79148;BMP280;68562;51.600;6.524;2023-11-19T07:20:00;1007.4;;;13.5
79148;BMP280;68562;51.600;6.524;2023-11-19T07:25:00;1007.5;;;13.5
79148;BMP280;68562;51.600;6.524;2023-11-19T07:30:00;1007.6;;;13.5
79148;BMP280;68562;51.600;6.524;2023-11-19T07:35:00;1007.6;;;13.5
79148;BMP280;68562;51.600;6.524;2023-11-19T07:40:00;1007.6;;;13.6
79148;BMP280;68562;51.600;6.524;2023-11-19T07:45:00;1007.7;;;13.6
79148;BMP280;68562;51.600;6.524;2023-11-19T07:50:00;1007.8;;;13.6
79148;BMP280;68562;51.600;6.524;2023-11-19T07:55:00;1007.9;;;13.7
79148;BMP280;68562;51.600;6.524;2023-11-19T08:00:00;1008.0;;;13.7
79148;BMP280;68562;51.600;6.524;2023-11-19T08:05:00;1008.0;;;13.8
79148;BMP280;68562;51.600;6.524;2023-11-19T08:10:00;1008.0;;;13.9
79148;BMP280;68562;51.600;6.524;2023-11-19T08:15:00;1008.0;;;13.8
79148;BMP280;68562;51.600;6.524;2023-11-19T08:20:00;1008.1;;;13.8
79148;BMP280;68562;51.600;6.524;2023-11-19T08:25:00;1008.0;;;13.9
79148;BMP280;68562;51.600;6.524;2023-11-19T08:30:00;1008.0;;;14.0
79148;BMP280;68562;51.600;6.524;2023-11-19T08:35:00;1008.0;;;14.2
79148;BMP280;68562;51.600;6.524;2023-11-19T08:40:00;1008.0;;;14.4
79148;BMP280;68562;51.600;6.524;2023-11-19T08:45:00;1008.1;;;14.6
79148;BMP280;68562;51.600;6.524;2023-11-19T08:50:00;1008.2;;;14.8
79148;BMP280;68562;51.600;6.524;2023-11-19T08:55:00;1008.1;;;14.9
79148;BMP280;68562;51.600;6.524;2023-11-19T09:00:00;1008.2;;;15.1
79148;BMP280;68562;51.600;6.524;2023-11-19T09:05:00;1008.2;;;15.1
79148;BMP280;68562;51.600;6.524;2023-11-19T09:10:00;1008.1;;;15.2
79148;BMP280;68562;51.600;6.524;2023-11-19T09:15:00;1008.1;;;15.2
79148;BMP280;68562;51.600;6.524;2023-11-19T09:20:00;1008.0;;;15.2
79148;BMP280;68562;51.600;6.524;2023-11-19T09:25:00;1008.1;;;15.2
79148;BMP280;68562;51.600;6.524;2023-11-19T09:30:00;1008.1;;;15.1
79148;BMP280;68562;51.600;6.524;2023-11-19T09:35:00;1008.1;;;15.1
79148;BMP280;68562;51.600;6.524;2023-11-19T09:40:00;1008.1;;;15.1
79148;BMP280;68562;51.600;6.524;2023-11-19T09:45:02;1008.1;;;15.1
79148;BMP280;68562;51.600;6.524;2023-11-19T09:50:00;1008.1;;;15.1
79148;BMP280;68562;51.600;6.524;2023-11-19T09:55:00;1008.1;;;15.0
79148;BMP280;68562;51.600;6.524;2023-11-19T10:00:01;1008.1;;;14.9
79148;BMP280;68562;51.600;6.524;2023-11-19T10:05:04;1008.1;;;15.1
79148;BMP280;68562;51.600;6.524;2023-11-19T10:10:00;1008.1;;;15.0
79148;BMP280;68562;51.600;6.524;2023-11-19T10:15:00;1008.1;;;15.1
79148;BMP280;68562;51.600;6.524;2023-11-19T10:20:00;1008.2;;;15.1
79148;BMP280;68562;51.600;6.524;2023-11-19T10:25:00;1008.2;;;15.1
79148;BMP280;68562;51.600;6.524;2023-11-19T10:30:00;1007.9;;;15.1
79148;BMP280;68562;51.600;6.524;2023-11-19T10:35:04;1008.0;;;15.3
79148;BMP280;68562;51.600;6.524;2023-11-19T10:40:00;1008.0;;;15.4
79148;BMP280;68562;51.600;6.524;2023-11-19T10:45:00;1008.0;;;15.4
79148;BMP280;68562;51.600;6.524;2023-11-19T10:50:00;1007.9;;;15.3
79148;BMP280;68562;51.600;6.524;2023-11-19T10:55:00;1007.9;;;15.3
79148;BMP280;68562;51.600;6.524;2023-11-19T11:00:01;1007.8;;;15.4
79148;BMP280;68562;51.600;6.524;2023-11-19T11:05:01;1007.8;;;15.4
79148;BMP280;68562;51.600;6.524;2023-11-19T11:10:01;1007.9;;;15.4
79148;BMP280;68562;51.600;6.524;2023-11-19T11:15:00;1007.8;;;15.4
79148;BMP280;68562;51.600;6.524;2023-11-19T11:20:00;1007.7;;;15.3
79148;BMP280;68562;51.600;6.524;2023-11-19T11:25:13;1007.8;;;15.4
79148;BMP280;68562;51.600;6.524;2023-11-19T11:30:07;1007.8;;;15.6
79148;BMP280;68562;51.600;6.524;2023-11-19T11:35:12;1007.5;;;15.9
79148;BMP280;68562;51.600;6.524;2023-11-19T11:40:01;1007.5;;;16.3
79148;BMP280;68562;51.600;6.524;2023-11-19T11:45:01;1007.6;;;17.0
79148;BMP280;68562;51.600;6.524;2023-11-19T11:50:07;1007.5;;;17.3
79148;BMP280;68562;51.600;6.524;2023-11-19T11:55:04;1007.4;;;17.2
79148;BMP280;68562;51.600;6.524;2023-11-19T12:00:02;1007.5;;;16.9
79148;BMP280;68562;51.600;6.524;2023-11-19T12:05:01;1007.4;;;16.7
79148;BMP280;68562;51.600;6.524;2023-11-19T12:10:06;1007.4;;;16.6
79148;BMP280;68562;51.600;6.524;2023-11-19T12:15:02;1007.3;;;16.6
79148;BMP280;68562;51.600;6.524;2023-11-19T12:20:00;1007.3;;;16.7
79148;BMP280;68562;51.600;6.524;2023-11-19T12:25:00;1007.4;;;16.5
79148;BMP280;68562;51.600;6.524;2023-11-19T12:30:00;1007.4;;;16.2
79148;BMP280;68562;51.600;6.524;2023-11-19T12:35:00;1007.4;;;15.9
79148;BMP280;68562;51.600;6.524;2023-11-19T12:40:00;1007.4;;;15.7
79148;BMP280;68562;51.600;6.524;2023-11-19T12:45:00;1007.3;;;15.6
79148;BMP280;68562;51.600;6.524;2023-11-19T12:50:00;1007.2;;;15.4
79148;BMP280;68562;51.600;6.524;2023-11-19T12:55:00;1007.2;;;15.5
79148;BMP280;68562;51.600;6.524;2023-11-19T13:00:00;1007.3;;;15.7
79148;BMP280;68562;51.600;6.524;2023-11-19T13:10:01;1007.2;;;16.1
79148;BMP280;68562;51.600;6.524;2023-11-19T13:15:00;1007.3;;;16.1
79148;BMP280;68562;51.600;6.524;2023-11-19T13:20:00;1007.2;;;16.0
79148;BMP280;68562;51.600;6.524;2023-11-19T13:25:00;1007.2;;;16.0
79148;BMP280;68562;51.600;6.524;2023-11-19T13:30:00;1007.2;;;16.3
79148;BMP280;68562;51.600;6.524;2023-11-19T13:35:00;1007.1;;;16.8
79148;BMP280;68562;51.600;6.524;2023-11-19T13:40:00;1007.2;;;17.0
79148;BMP280;68562;51.600;6.524;2023-11-19T13:45:00;1007.1;;;17.4
79148;BMP280;68562;51.600;6.524;2023-11-19T13:50:00;1007.1;;;17.7
79148;BMP280;68562;51.600;6.524;2023-11-19T13:55:00;1007.1;;;17.5
79148;BMP280;68562;51.600;6.524;2023-11-19T14:00:00;1007.0;;;17.1
79148;BMP280;68562;51.600;6.524;2023-11-19T14:05:00;1007.1;;;16.7
79148;BMP280;68562;51.600;6.524;2023-11-19T14:10:00;1007.1;;;16.4
79148;BMP280;68562;51.600;6.524;2023-11-19T14:15:00;1007.1;;;16.0
79148;BMP280;68562;51.600;6.524;2023-11-19T14:20:00;1007.1;;;15.5
79148;BMP280;68562;51.600;6.524;2023-11-19T14:25:00;1007.1;;;15.2
79148;BMP280;68562;51.600;6.524;2023-11-19T14:30:00;1007.1;;;15.0
79148;BMP280;68562;51.600;6.524;2023-11-19T14:35:00;1007.1;;;15.0
79148;BMP280;68562;51.600;6.524;2023-11-19T14:40:00;1007.0;;;15.0
79148;BMP280;68562;51.600;6.524;2023-11-19T14:45:00;1007.0;;;14.9
79148;BMP280;68562;51.600;6.524;2023-11-19T14:50:00;1006.9;;;14.7
79148;BMP280;68562;51.600;6.524;2023-11-19T14:55:00;1006.9;;;14.6
79148;BMP280;68562;51.600;6.524;2023-11-19T15:00:00;1006.9;;;14.6
79148;BMP280;68562;51.600;6.524;2023-11-19T15:05:00;1006.9;;;14.5
79148;BMP280;68562;51.600;6.524;2023-11-19T15:10:00;1006.9;;;14.5
79148;BMP280;68562;51.600;6.524;2023-11-19T15:15:00;1006.8;;;14.4
79148;BMP280;68562;51.600;6.524;2023-11-19T15:20:00;1006.8;;;14.4
79148;BMP280;68562;51.600;6.524;2023-11-19T15:25:00;1006.8;;;14.4
79148;BMP280;68562;51.600;6.524;2023-11-19T15:30:00;1006.7;;;14.3
79148;BMP280;68562;51.600;6.524;2023-11-19T15:35:00;1006.8;;;14.2
79148;BMP280;68562;51.600;6.524;2023-11-19T15:40:00;1006.8;;;14.1
79148;BMP280;68562;51.600;6.524;2023-11-19T15:45:00;1006.8;;;14.1
79148;BMP280;68562;51.600;6.524;2023-11-19T15:50:00;1006.9;;;14.2
79148;BMP280;68562;51.600;6.524;2023-11-19T15:55:00;1006.9;;;14.1
79148;BMP280;68562;51.600;6.524;2023-11-19T16:00:00;1007.0;;;14.0
79148;BMP280;68562;51.600;6.524;2023-11-19T16:05:00;1007.0;;;13.9
79148;BMP280;68562;51.600;6.524;2023-11-19T16:10:00;1007.0;;;13.9
79148;BMP280;68562;51.600;6.524;2023-11-19T16:15:00;1006.9;;;14.0
79148;BMP280;68562;51.600;6.524;2023-11-19T16:20:00;1007.1;;;14.1
79148;BMP280;68562;51.600;6.524;2023-11-19T16:25:00;1007.1;;;14.1
79148;BMP280;68562;51.600;6.524;2023-11-19T16:30:00;1007.2;;;14.2
79148;BMP280;68562;51.600;6.524;2023-11-19T16:35:00;1007.1;;;14.4
79148;BMP280;68562;51.600;6.524;2023-11-19T16:40:00;1007.1;;;14.0
79148;BMP280;68562;51.600;6.524;2023-11-19T16:45:00;1007.1;;;13.8
79148;BMP280;68562;51.600;6.524;2023-11-19T16:50:00;1007.0;;;13.8
79148;BMP280;68562;51.600;6.524;2023-11-19T16:55:00;1007.1;;;13.8
79148;BMP280;68562;51.600;6.524;2023-11-19T17:00:00;1007.3;;;13.7
79148;BMP280;68562;51.600;6.524;2023-11-19T17:05:00;1007.2;;;13.8
79148;BMP280;68562;51.600;6.524;2023-11-19T17:10:00;1007.2;;;13.7
79148;BMP280;68562;51.600;6.524;2023-11-19T17:15:00;1007.2;;;13.8
79148;BMP280;68562;51.600;6.524;2023-11-19T17:20:00;1007.1;;;13.7
79148;BMP280;68562;51.600;6.524;2023-11-19T17:25:00;1007.0;;;13.7
79148;BMP280;68562;51.600;6.524;2023-11-19T17:30:00;1007.2;;;13.7
79148;BMP280;68562;51.600;6.524;2023-11-19T17:35:00;1007.1;;;13.8
79148;BMP280;68562;51.600;6.524;2023-11-19T17:40:00;1007.1;;;13.7
79148;BMP280;68562;51.600;6.524;2023-11-19T17:45:01;1007.0;;;13.7
79148;BMP280;68562;51.600;6.524;2023-11-19T17:50:00;1007.0;;;13.8
79148;BMP280;68562;51.600;6.524;2023-11-19T17:55:00;1007.0;;;13.7
79148;BMP280;68562;51.600;6.524;2023-11-19T18:00:00;1006.9;;;13.6
79148;BMP280;68562;51.600;6.524;2023-11-19T18:05:00;1006.8;;;13.7
79148;BMP280;68562;51.600;6.524;2023-11-19T18:10:00;1006.8;;;13.6
79148;BMP280;68562;51.600;6.524;2023-11-19T18:15:00;1006.8;;;13.4
79148;BMP280;68562;51.600;6.524;2023-11-19T18:20:00;1006.8;;;13.4
79148;BMP280;68562;51.600;6.524;2023-11-19T18:25:00;1006.8;;;13.4
79148;BMP280;68562;51.600;6.524;2023-11-19T18:30:00;1006.8;;;13.3
79148;BMP280;68562;51.600;6.524;2023-11-19T18:35:00;1006.7;;;13.3
79148;BMP280;68562;51.600;6.524;2023-11-19T18:40:00;1006.7;;;13.2
79148;BMP280;68562;51.600;6.524;2023-11-19T18:45:00;1006.6;;;13.1
79148;BMP280;68562;51.600;6.524;2023-11-19T18:50:00;1006.8;;;13.2
79148;BMP280;68562;51.600;6.524;2023-11-19T18:55:00;1006.7;;;13.2
79148;BMP280;68562;51.600;6.524;2023-11-19T19:00:00;1006.6;;;13.3
79148;BMP280;68562;51.600;6.524;2023-11-19T19:05:00;1006.6;;;13.3
79148;BMP280;68562;51.600;6.524;2023-11-19T19:10:00;1006.6;;;13.3
79148;BMP280;68562;51.600;6.524;2023-11-19T19:15:01;1006.5;;;13.2
79148;BMP280;68562;51.600;6.524;2023-11-19T19:20:00;1006.5;;;13.2
79148;BMP280;68562;51.600;6.524;2023-11-19T19:25:00;1006.4;;;13.1
79148;BMP280;68562;51.600;6.524;2023-11-19T19:30:00;1006.5;;;13.1
79148;BMP280;68562;51.600;6.524;2023-11-19T19:35:00;1006.5;;;13.1
79148;BMP280;68562;51.600;6.524;2023-11-19T19:40:00;1006.5;;;13.2
79148;BMP280;68562;51.600;6.524;2023-11-19T19:45:00;1006.4;;;13.1
79148;BMP280;68562;51.600;6.524;2023-11-19T19:50:00;1006.5;;;13.1
79148;BMP280;68562;51.600;6.524;2023-11-19T19:55:00;1006.4;;;13.1
79148;BMP280;68562;51.600;6.524;2023-11-19T20:00:00;1006.4;;;13.1
79148;BMP280;68562;51.600;6.524;2023-11-19T20:05:00;1006.4;;;13.0
79148;BMP280;68562;51.600;6.524;2023-11-19T20:10:00;1006.5;;;13.1
79148;BMP280;68562;51.600;6.524;2023-11-19T20:15:00;1006.5;;;13.1
79148;BMP280;68562;51.600;6.524;2023-11-19T20:20:00;1006.5;;;13.1
79148;BMP280;68562;51.600;6.524;2023-11-19T20:25:00;1006.5;;;13.1
79148;BMP280;68562;51.600;6.524;2023-11-19T20:30:00;1006.5;;;13.1
79148;BMP280;68562;51.600;6.524;2023-11-19T20:35:00;1006.4;;;13.1
79148;BMP280;68562;51.600;6.524;2023-11-19T20:40:00;1006.5;;;13.1
79148;BMP280;68562;51.600;6.524;2023-11-19T20:45:00;1006.4;;;13.1
79148;BMP280;68562;51.600;6.524;2023-11-19T20:50:00;1006.5;;;13.2
79148;BMP280;68562;51.600;6.524;2023-11-19T20:55:00;1006.5;;;13.1
79148;BMP280;68562;51.600;6.524;2023-11-19T21:00:00;1006.5;;;13.1
79148;BMP280;68562;51.600;6.524;2023-11-19T21:05:00;1006.6;;;13.1
79148;BMP280;68562;51.600;6.524;2023-11-19T21:10:00;1006.6;;;13.2
79148;BMP280;68562;51.600;6.524;2023-11-19T21:15:00;1006.6;;;13.3
79148;BMP280;68562;51.600;6.524;2023-11-19T21:20:00;1006.5;;;13.3
79148;BMP280;68562;51.600;6.524;2023-11-19T21:25:00;1006.5;;;13.2
79148;BMP280;68562;51.600;6.524;2023-11-19T21:30:00;1006.5;;;13.4
79148;BMP280;68562;51.600;6.524;2023-11-19T21:35:00;1006.5;;;13.7
79148;BMP280;68562;51.600;6.524;2023-11-19T21:40:00;1006.5;;;13.9
79148;BMP280;68562;51.600;6.524;2023-11-19T21:45:00;1006.5;;;14.0
79148;BMP280;68562;51.600;6.524;2023-11-19T21:50:00;1006.4;;;14.2
79148;BMP280;68562;51.600;6.524;2023-11-19T21:55:00;1006.5;;;14.3
79148;BMP280;68562;51.600;6.524;2023-11-19T22:00:00;1006.5;;;14.2
79148;BMP280;68562;51.600;6.524;2023-11-19T22:05:00;1006.5;;;14.2
79148;BMP280;68562;51.600;6.524;2023-11-19T22:10:00;1006.6;;;14.2
79148;BMP280;68562;51.600;6.524;2023-11-19T22:15:00;1006.6;;;14.3
79148;BMP280;68562;51.600;6.524;2023-11-19T22:20:00;1006.6;;;14.2
79148;BMP280;68562;51.600;6.524;2023-11-19T22:25:00;1006.6;;;14.2
79148;BMP280;68562;51.600;6.524;2023-11-19T22:30:00;1006.7;;;14.4
79148;BMP280;68562;51.600;6.524;2023-11-19T22:35:00;1006.7;;;14.3
79148;BMP280;68562;51.600;6.524;2023-11-19T22:40:00;1006.8;;;14.3
79148;BMP280;68562;51.600;6.524;2023-11-19T22:45:00;1006.7;;;14.3
79148;BMP280;68562;51.600;6.524;2023-11-19T22:50:00;1006.7;;;14.4
79148;BMP280;68562;51.600;6.524;2023-11-19T22:55:00;1006.7;;;14.4
79148;BMP280;68562;51.600;6.524;2023-11-19T23:00:00;1006.6;;;14.7
79148;BMP280;68562;51.600;6.524;2023-11-19T23:05:00;1006.7;;;14.5
79148;BMP280;68562;51.600;6.524;2023-11-19T23:10:00;1006.8;;;14.6
79148;BMP280;68562;51.600;6.524;2023-11-19T23:15:00;1006.8;;;14.5
79148;BMP280;68562;51.600;6.524;2023-11-19T23:20:01;1006.9;;;14.5
79148;BMP280;68562;51.600;6.524;2023-11-19T23:25:00;1006.8;;;14.5
79148;BMP280;68562;51.600;6.524;2023-11-19T23:30:00;1006.9;;;14.5
79148;BMP280;68562;51.600;6.524;2023-11-19T23:35:00;1006.9;;;14.5
79148;BMP280;68562;51.600;6.524;2023-11-19T23:40:00;1006.9;;;14.5
79148;BMP280;68562;51.600;6.524;2023-11-19T23:45:00;1006.8;;;14.4
79148;BMP280;68562;51.600;6.524;2023-11-19T23:50:00;1007.0;;;14.4
79148;BMP280;68562;51.600;6.524;2023-11-19T23:55:00;1007.0;;;14.4
